sensor_id;sensor_type;location;lat;lon;timestamp;pressure;altitude;pressure_sealevel;temperature;humidity
10464;BME280;5279;42.048;24.638;2022-08-19T00:01:18;97026.00;;;25.97;44.06
10464;BME280;5279;42.048;24.638;2022-08-19T00:03:45;97014.63;;;26.00;43.73
10464;BME280;5279;42.048;24.638;2022-08-19T00:06:12;97020.00;;;25.95;43.97
10464;BME280;5279;42.048;24.638;2022-08-19T00:08:39;97022.78;;;26.05;44.60
10464;BME280;5279;42.048;24.638;2022-08-19T00:11:07;97018.91;;;25.96;44.45
10464;BME280;5279;42.048;24.638;2022-08-19T00:13:35;97020.34;;;25.77;44.66
10464;BME280;5279;42.048;24.638;2022-08-19T00:16:03;97013.94;;;25.62;45.12
10464;BME280;5279;42.048;24.638;2022-08-19T00:18:31;97023.09;;;25.56;44.89
10464;BME280;5279;42.048;24.638;2022-08-19T00:20:58;97016.13;;;25.65;45.25
10464;BME280;5279;42.048;24.638;2022-08-19T00:23:25;97010.41;;;25.61;45.27
10464;BME280;5279;42.048;24.638;2022-08-19T00:25:53;97011.53;;;25.65;45.29
10464;BME280;5279;42.048;24.638;2022-08-19T00:28:21;97012.31;;;25.66;44.79
10464;BME280;5279;42.048;24.638;2022-08-19T00:30:48;97005.78;;;25.62;45.23
10464;BME280;5279;42.048;24.638;2022-08-19T00:33:17;96999.53;;;25.61;45.27
10464;BME280;5279;42.048;24.638;2022-08-19T00:35:44;97001.78;;;25.69;45.53
10464;BME280;5279;42.048;24.638;2022-08-19T00:38:10;97002.19;;;25.56;45.32
10464;BME280;5279;42.048;24.638;2022-08-19T00:40:37;97005.47;;;25.58;46.03
10464;BME280;5279;42.048;24.638;2022-08-19T00:43:08;96995.69;;;25.57;46.41
10464;BME280;5279;42.048;24.638;2022-08-19T00:45:37;96990.72;;;25.49;45.90
10464;BME280;5279;42.048;24.638;2022-08-19T00:48:07;96999.41;;;25.51;45.51
10464;BME280;5279;42.048;24.638;2022-08-19T00:50:34;96996.56;;;25.41;45.61
10464;BME280;5279;42.048;24.638;2022-08-19T00:53:01;97004.06;;;25.34;46.48
10464;BME280;5279;42.048;24.638;2022-08-19T00:55:30;96997.91;;;25.17;46.98
10464;BME280;5279;42.048;24.638;2022-08-19T00:58:02;96991.81;;;25.10;46.87
10464;BME280;5279;42.048;24.638;2022-08-19T01:00:29;96984.69;;;25.04;47.63
10464;BME280;5279;42.048;24.638;2022-08-19T01:02:58;96986.25;;;24.99;47.71
10464;BME280;5279;42.048;24.638;2022-08-19T01:05:27;96987.09;;;25.00;47.78
10464;BME280;5279;42.048;24.638;2022-08-19T01:07:55;96985.94;;;24.96;48.06
10464;BME280;5279;42.048;24.638;2022-08-19T01:10:27;96978.41;;;24.81;48.05
10464;BME280;5279;42.048;24.638;2022-08-19T01:12:55;96985.50;;;24.82;47.88
10464;BME280;5279;42.048;24.638;2022-08-19T01:15:25;96989.25;;;24.81;48.15
10464;BME280;5279;42.048;24.638;2022-08-19T01:17:54;96975.72;;;24.81;48.05
10464;BME280;5279;42.048;24.638;2022-08-19T01:20:23;96996.78;;;24.79;48.15
10464;BME280;5279;42.048;24.638;2022-08-19T01:22:54;96988.19;;;24.82;48.20
10464;BME280;5279;42.048;24.638;2022-08-19T01:25:26;96987.94;;;24.84;48.19
10464;BME280;5279;42.048;24.638;2022-08-19T01:27:55;96999.59;;;24.84;47.42
10464;BME280;5279;42.048;24.638;2022-08-19T01:30:25;96987.75;;;24.90;47.38
10464;BME280;5279;42.048;24.638;2022-08-19T01:32:53;96983.50;;;24.94;48.13
10464;BME280;5279;42.048;24.638;2022-08-19T01:35:22;96985.63;;;24.92;48.14
10464;BME280;5279;42.048;24.638;2022-08-19T01:37:53;96996.78;;;24.79;48.67
10464;BME280;5279;42.048;24.638;2022-08-19T01:40:23;96996.72;;;24.74;47.97
10464;BME280;5279;42.048;24.638;2022-08-19T01:42:52;96999.75;;;24.78;48.29
10464;BME280;5279;42.048;24.638;2022-08-19T01:45:22;96995.16;;;24.78;47.88
10464;BME280;5279;42.048;24.638;2022-08-19T01:47:49;96990.97;;;24.71;49.42
10464;BME280;5279;42.048;24.638;2022-08-19T01:50:16;97004.69;;;24.64;48.22
10464;BME280;5279;42.048;24.638;2022-08-19T01:52:44;96994.34;;;24.61;49.02
10464;BME280;5279;42.048;24.638;2022-08-19T01:55:14;96988.44;;;24.47;50.22
10464;BME280;5279;42.048;24.638;2022-08-19T01:57:48;96989.44;;;24.41;49.22
10464;BME280;5279;42.048;24.638;2022-08-19T02:00:19;97004.53;;;24.54;49.71
10464;BME280;5279;42.048;24.638;2022-08-19T02:02:46;96994.53;;;24.55;49.51
10464;BME280;5279;42.048;24.638;2022-08-19T02:05:13;97000.78;;;24.55;50.24
10464;BME280;5279;42.048;24.638;2022-08-19T02:07:45;97011.28;;;24.52;50.08
10464;BME280;5279;42.048;24.638;2022-08-19T02:10:16;97009.88;;;24.49;50.55
10464;BME280;5279;42.048;24.638;2022-08-19T02:12:44;97011.44;;;24.45;50.46
10464;BME280;5279;42.048;24.638;2022-08-19T02:15:11;97015.47;;;24.42;50.46
10464;BME280;5279;42.048;24.638;2022-08-19T02:17:39;97014.41;;;24.43;50.60
10464;BME280;5279;42.048;24.638;2022-08-19T02:20:07;97028.84;;;24.49;50.00
10464;BME280;5279;42.048;24.638;2022-08-19T02:22:34;97038.19;;;24.58;49.79
10464;BME280;5279;42.048;24.638;2022-08-19T02:25:02;97033.28;;;24.55;51.45
10464;BME280;5279;42.048;24.638;2022-08-19T02:27:31;97042.28;;;24.44;52.91
10464;BME280;5279;42.048;24.638;2022-08-19T02:29:59;97038.50;;;24.45;52.29
10464;BME280;5279;42.048;24.638;2022-08-19T02:32:26;97041.88;;;24.35;52.81
10464;BME280;5279;42.048;24.638;2022-08-19T02:34:53;97037.69;;;24.28;53.17
10464;BME280;5279;42.048;24.638;2022-08-19T02:37:19;97045.22;;;24.26;54.00
10464;BME280;5279;42.048;24.638;2022-08-19T02:40:04;97042.44;;;24.21;55.32
10464;BME280;5279;42.048;24.638;2022-08-19T02:42:33;97048.41;;;24.23;55.50
10464;BME280;5279;42.048;24.638;2022-08-19T02:45:00;97046.47;;;24.18;56.22
10464;BME280;5279;42.048;24.638;2022-08-19T02:47:27;97049.50;;;24.22;58.50
10464;BME280;5279;42.048;24.638;2022-08-19T02:49:54;97055.25;;;23.97;58.40
10464;BME280;5279;42.048;24.638;2022-08-19T02:52:21;97046.16;;;23.75;56.28
10464;BME280;5279;42.048;24.638;2022-08-19T02:54:49;97054.63;;;23.78;56.04
10464;BME280;5279;42.048;24.638;2022-08-19T02:57:16;97049.34;;;23.72;55.46
10464;BME280;5279;42.048;24.638;2022-08-19T02:59:45;97052.31;;;23.70;57.29
10464;BME280;5279;42.048;24.638;2022-08-19T03:02:11;97047.16;;;23.57;58.05
10464;BME280;5279;42.048;24.638;2022-08-19T03:04:38;97051.69;;;23.68;55.73
10464;BME280;5279;42.048;24.638;2022-08-19T03:07:06;97053.94;;;23.71;56.41
10464;BME280;5279;42.048;24.638;2022-08-19T03:09:36;97056.75;;;23.76;59.88
10464;BME280;5279;42.048;24.638;2022-08-19T03:12:04;97061.94;;;23.66;58.70
10464;BME280;5279;42.048;24.638;2022-08-19T03:14:31;97057.97;;;23.57;58.17
10464;BME280;5279;42.048;24.638;2022-08-19T03:16:59;97062.13;;;23.48;58.50
10464;BME280;5279;42.048;24.638;2022-08-19T03:19:26;97060.47;;;23.47;59.27
10464;BME280;5279;42.048;24.638;2022-08-19T03:21:53;97069.63;;;23.58;60.50
10464;BME280;5279;42.048;24.638;2022-08-19T03:24:21;97063.66;;;23.44;59.70
10464;BME280;5279;42.048;24.638;2022-08-19T03:26:53;97067.78;;;23.47;60.32
10464;BME280;5279;42.048;24.638;2022-08-19T03:29:24;97078.56;;;23.35;60.79
10464;BME280;5279;42.048;24.638;2022-08-19T03:31:51;97067.69;;;23.07;61.61
10464;BME280;5279;42.048;24.638;2022-08-19T03:34:23;97082.97;;;23.13;61.15
10464;BME280;5279;42.048;24.638;2022-08-19T03:36:52;97075.91;;;23.12;61.96
10464;BME280;5279;42.048;24.638;2022-08-19T03:39:21;97080.84;;;23.15;60.31
10464;BME280;5279;42.048;24.638;2022-08-19T03:41:49;97074.88;;;23.13;61.60
10464;BME280;5279;42.048;24.638;2022-08-19T03:44:18;97086.81;;;23.17;61.82
10464;BME280;5279;42.048;24.638;2022-08-19T03:46:47;97084.13;;;23.17;61.38
10464;BME280;5279;42.048;24.638;2022-08-19T03:49:15;97076.72;;;23.12;59.42
10464;BME280;5279;42.048;24.638;2022-08-19T03:51:45;97093.03;;;23.29;57.69
10464;BME280;5279;42.048;24.638;2022-08-19T03:54:14;97090.69;;;23.44;57.00
10464;BME280;5279;42.048;24.638;2022-08-19T03:56:43;97090.69;;;23.44;59.52
10464;BME280;5279;42.048;24.638;2022-08-19T03:59:13;97089.75;;;23.50;56.94
10464;BME280;5279;42.048;24.638;2022-08-19T04:01:41;97091.25;;;23.58;58.65
10464;BME280;5279;42.048;24.638;2022-08-19T04:04:08;97085.41;;;23.49;60.82
10464;BME280;5279;42.048;24.638;2022-08-19T04:06:37;97101.97;;;23.41;59.33
10464;BME280;5279;42.048;24.638;2022-08-19T04:09:08;97088.59;;;23.46;63.64
10464;BME280;5279;42.048;24.638;2022-08-19T04:11:37;97086.47;;;23.48;60.34
10464;BME280;5279;42.048;24.638;2022-08-19T04:14:08;97087.41;;;23.42;63.47
10464;BME280;5279;42.048;24.638;2022-08-19T04:16:35;97097.28;;;23.48;66.27
10464;BME280;5279;42.048;24.638;2022-08-19T04:19:03;97098.47;;;23.52;64.94
10464;BME280;5279;42.048;24.638;2022-08-19T04:21:31;97095.84;;;23.57;64.93
10464;BME280;5279;42.048;24.638;2022-08-19T04:23:58;97094.19;;;23.56;64.39
10464;BME280;5279;42.048;24.638;2022-08-19T04:26:28;97109.47;;;23.62;66.60
10464;BME280;5279;42.048;24.638;2022-08-19T04:28:57;97097.22;;;23.71;65.08
10464;BME280;5279;42.048;24.638;2022-08-19T04:31:27;97097.91;;;23.78;64.36
10464;BME280;5279;42.048;24.638;2022-08-19T04:33:55;97109.44;;;23.85;66.13
10464;BME280;5279;42.048;24.638;2022-08-19T04:36:25;97109.28;;;23.92;67.13
10464;BME280;5279;42.048;24.638;2022-08-19T04:38:54;97103.34;;;24.07;67.74
10464;BME280;5279;42.048;24.638;2022-08-19T04:41:21;97108.72;;;24.18;66.08
10464;BME280;5279;42.048;24.638;2022-08-19T04:44:08;97107.69;;;24.36;62.90
10464;BME280;5279;42.048;24.638;2022-08-19T04:46:35;97098.38;;;24.43;63.09
10464;BME280;5279;42.048;24.638;2022-08-19T04:49:03;97106.00;;;24.63;62.70
10464;BME280;5279;42.048;24.638;2022-08-19T04:51:32;97101.09;;;24.77;64.41
10464;BME280;5279;42.048;24.638;2022-08-19T04:53:59;97100.06;;;24.94;64.63
10464;BME280;5279;42.048;24.638;2022-08-19T04:56:27;97108.97;;;25.12;62.60
10464;BME280;5279;42.048;24.638;2022-08-19T04:58:55;97110.09;;;25.32;61.74
10464;BME280;5279;42.048;24.638;2022-08-19T05:01:26;97113.00;;;25.47;60.29
10464;BME280;5279;42.048;24.638;2022-08-19T05:03:54;97109.66;;;25.57;59.66
10464;BME280;5279;42.048;24.638;2022-08-19T05:06:22;97102.19;;;25.69;57.61
10464;BME280;5279;42.048;24.638;2022-08-19T05:08:50;97109.34;;;25.75;57.87
10464;BME280;5279;42.048;24.638;2022-08-19T05:11:19;97108.00;;;25.78;57.96
10464;BME280;5279;42.048;24.638;2022-08-19T05:13:47;97107.81;;;25.84;56.02
10464;BME280;5279;42.048;24.638;2022-08-19T05:16:17;97115.03;;;25.95;57.36
10464;BME280;5279;42.048;24.638;2022-08-19T05:18:46;97110.78;;;26.04;56.61
10464;BME280;5279;42.048;24.638;2022-08-19T05:21:32;97117.09;;;26.10;55.68
10464;BME280;5279;42.048;24.638;2022-08-19T05:24:17;97119.13;;;26.20;54.57
10464;BME280;5279;42.048;24.638;2022-08-19T05:26:47;97115.47;;;26.36;54.50
10464;BME280;5279;42.048;24.638;2022-08-19T05:29:16;97116.56;;;26.35;55.03
10464;BME280;5279;42.048;24.638;2022-08-19T05:31:43;97114.69;;;26.35;54.35
10464;BME280;5279;42.048;24.638;2022-08-19T05:34:11;97112.72;;;26.31;55.65
10464;BME280;5279;42.048;24.638;2022-08-19T05:36:42;97112.34;;;26.49;55.31
10464;BME280;5279;42.048;24.638;2022-08-19T05:39:13;97113.69;;;26.46;55.09
10464;BME280;5279;42.048;24.638;2022-08-19T05:41:41;97117.63;;;26.60;54.96
10464;BME280;5279;42.048;24.638;2022-08-19T05:44:09;97115.63;;;26.78;53.95
10464;BME280;5279;42.048;24.638;2022-08-19T05:46:36;97116.50;;;26.83;53.99
10464;BME280;5279;42.048;24.638;2022-08-19T05:49:04;97117.63;;;26.87;53.66
10464;BME280;5279;42.048;24.638;2022-08-19T05:51:34;97120.69;;;26.96;54.10
10464;BME280;5279;42.048;24.638;2022-08-19T05:54:02;97122.72;;;27.10;53.88
10464;BME280;5279;42.048;24.638;2022-08-19T05:56:33;97114.66;;;27.26;54.14
10464;BME280;5279;42.048;24.638;2022-08-19T05:59:04;97107.72;;;27.45;54.37
10464;BME280;5279;42.048;24.638;2022-08-19T06:01:37;97114.63;;;27.62;53.01
10464;BME280;5279;42.048;24.638;2022-08-19T06:04:05;97111.69;;;27.74;50.87
10464;BME280;5279;42.048;24.638;2022-08-19T06:06:34;97114.50;;;27.99;51.86
10464;BME280;5279;42.048;24.638;2022-08-19T06:09:02;97109.16;;;28.19;51.63
10464;BME280;5279;42.048;24.638;2022-08-19T06:11:34;97113.56;;;28.36;52.38
10464;BME280;5279;42.048;24.638;2022-08-19T06:14:03;97112.50;;;28.62;51.72
10464;BME280;5279;42.048;24.638;2022-08-19T06:16:33;97116.91;;;28.78;54.31
10464;BME280;5279;42.048;24.638;2022-08-19T06:19:01;97109.53;;;28.89;54.88
10464;BME280;5279;42.048;24.638;2022-08-19T06:21:30;97116.91;;;29.03;55.24
10464;BME280;5279;42.048;24.638;2022-08-19T06:23:59;97118.56;;;28.99;55.21
10464;BME280;5279;42.048;24.638;2022-08-19T06:26:26;97118.81;;;28.93;54.56
10464;BME280;5279;42.048;24.638;2022-08-19T06:28:53;97126.47;;;28.91;54.88
10464;BME280;5279;42.048;24.638;2022-08-19T06:31:22;97121.28;;;28.99;54.30
10464;BME280;5279;42.048;24.638;2022-08-19T06:33:49;97120.47;;;28.94;55.56
10464;BME280;5279;42.048;24.638;2022-08-19T06:36:18;97127.25;;;28.91;55.28
10464;BME280;5279;42.048;24.638;2022-08-19T06:38:45;97139.03;;;28.97;54.60
10464;BME280;5279;42.048;24.638;2022-08-19T06:41:13;97133.00;;;29.00;55.10
10464;BME280;5279;42.048;24.638;2022-08-19T06:43:40;97133.28;;;29.08;54.76
10464;BME280;5279;42.048;24.638;2022-08-19T06:46:13;97141.44;;;29.13;54.21
10464;BME280;5279;42.048;24.638;2022-08-19T06:48:41;97141.44;;;29.18;53.53
10464;BME280;5279;42.048;24.638;2022-08-19T06:51:08;97139.81;;;29.27;54.32
10464;BME280;5279;42.048;24.638;2022-08-19T06:53:35;97142.53;;;29.48;53.78
10464;BME280;5279;42.048;24.638;2022-08-19T06:56:02;97136.25;;;29.52;53.13
10464;BME280;5279;42.048;24.638;2022-08-19T06:58:31;97138.41;;;29.55;53.10
10464;BME280;5279;42.048;24.638;2022-08-19T07:00:59;97137.59;;;29.60;51.83
10464;BME280;5279;42.048;24.638;2022-08-19T07:03:30;97140.00;;;29.76;51.36
10464;BME280;5279;42.048;24.638;2022-08-19T07:05:58;97135.09;;;29.84;51.87
10464;BME280;5279;42.048;24.638;2022-08-19T07:08:28;97136.34;;;30.11;51.62
10464;BME280;5279;42.048;24.638;2022-08-19T07:10:55;97124.34;;;30.12;50.63
10464;BME280;5279;42.048;24.638;2022-08-19T07:13:23;97124.28;;;30.17;50.65
10464;BME280;5279;42.048;24.638;2022-08-19T07:15:51;97128.53;;;30.44;50.72
10464;BME280;5279;42.048;24.638;2022-08-19T07:18:19;97120.19;;;30.69;51.92
10464;BME280;5279;42.048;24.638;2022-08-19T07:20:47;97128.72;;;31.01;50.83
10464;BME280;5279;42.048;24.638;2022-08-19T07:23:14;97126.31;;;31.23;51.33
10464;BME280;5279;42.048;24.638;2022-08-19T07:25:41;97128.84;;;31.49;47.58
10464;BME280;5279;42.048;24.638;2022-08-19T07:28:08;97132.00;;;31.61;45.26
10464;BME280;5279;42.048;24.638;2022-08-19T07:30:38;97130.72;;;31.77;46.99
10464;BME280;5279;42.048;24.638;2022-08-19T07:33:07;97131.38;;;31.92;45.69
10464;BME280;5279;42.048;24.638;2022-08-19T07:35:34;97125.50;;;32.04;45.16
10464;BME280;5279;42.048;24.638;2022-08-19T07:38:01;97116.72;;;32.26;42.79
10464;BME280;5279;42.048;24.638;2022-08-19T07:40:30;97127.19;;;32.42;44.04
10464;BME280;5279;42.048;24.638;2022-08-19T07:42:57;97135.22;;;32.58;43.18
10464;BME280;5279;42.048;24.638;2022-08-19T07:45:24;97127.13;;;32.85;43.33
10464;BME280;5279;42.048;24.638;2022-08-19T07:47:51;97137.25;;;33.03;40.40
10464;BME280;5279;42.048;24.638;2022-08-19T07:50:21;97131.19;;;33.06;40.09
10464;BME280;5279;42.048;24.638;2022-08-19T07:52:48;97135.03;;;33.05;39.54
10464;BME280;5279;42.048;24.638;2022-08-19T07:55:18;97132.81;;;33.07;37.77
10464;BME280;5279;42.048;24.638;2022-08-19T07:57:45;97132.13;;;32.83;37.80
10464;BME280;5279;42.048;24.638;2022-08-19T08:00:13;97133.56;;;32.94;39.33
10464;BME280;5279;42.048;24.638;2022-08-19T08:02:40;97129.13;;;32.98;39.80
10464;BME280;5279;42.048;24.638;2022-08-19T08:05:09;97139.34;;;33.11;39.12
10464;BME280;5279;42.048;24.638;2022-08-19T08:07:55;97132.38;;;33.32;37.40
10464;BME280;5279;42.048;24.638;2022-08-19T08:10:39;97133.25;;;33.46;35.79
10464;BME280;5279;42.048;24.638;2022-08-19T08:13:06;97125.00;;;33.46;34.84
10464;BME280;5279;42.048;24.638;2022-08-19T08:15:33;97133.25;;;33.14;33.88
10464;BME280;5279;42.048;24.638;2022-08-19T08:18:02;97135.03;;;33.24;34.02
10464;BME280;5279;42.048;24.638;2022-08-19T08:20:29;97131.38;;;33.28;33.18
10464;BME280;5279;42.048;24.638;2022-08-19T08:22:57;97138.16;;;33.17;34.54
10464;BME280;5279;42.048;24.638;2022-08-19T08:25:42;97129.84;;;33.22;33.96
10464;BME280;5279;42.048;24.638;2022-08-19T08:28:08;97127.22;;;33.31;36.00
10464;BME280;5279;42.048;24.638;2022-08-19T08:30:36;97129.66;;;33.65;35.25
10464;BME280;5279;42.048;24.638;2022-08-19T08:33:06;97115.91;;;33.78;33.57
10464;BME280;5279;42.048;24.638;2022-08-19T08:35:33;97129.44;;;34.02;34.11
10464;BME280;5279;42.048;24.638;2022-08-19T08:38:03;97123.31;;;34.05;32.42
10464;BME280;5279;42.048;24.638;2022-08-19T08:40:37;97130.09;;;34.13;32.46
10464;BME280;5279;42.048;24.638;2022-08-19T08:43:07;97119.78;;;34.18;31.83
10464;BME280;5279;42.048;24.638;2022-08-19T08:45:41;97127.72;;;34.33;33.39
10464;BME280;5279;42.048;24.638;2022-08-19T08:48:16;97115.88;;;34.46;31.80
10464;BME280;5279;42.048;24.638;2022-08-19T08:50:46;97111.34;;;34.50;32.23
10464;BME280;5279;42.048;24.638;2022-08-19T08:53:18;97112.66;;;34.67;32.44
10464;BME280;5279;42.048;24.638;2022-08-19T08:55:46;97104.19;;;34.77;31.40
10464;BME280;5279;42.048;24.638;2022-08-19T08:58:17;97113.94;;;34.83;30.54
10464;BME280;5279;42.048;24.638;2022-08-19T09:00:48;97101.78;;;34.62;31.37
10464;BME280;5279;42.048;24.638;2022-08-19T09:03:18;97093.16;;;34.77;29.91
10464;BME280;5279;42.048;24.638;2022-08-19T09:05:57;97102.84;;;35.10;32.02
10464;BME280;5279;42.048;24.638;2022-08-19T09:08:36;97106.31;;;35.24;30.86
10464;BME280;5279;42.048;24.638;2022-08-19T09:11:08;97091.09;;;35.27;29.27
10464;BME280;5279;42.048;24.638;2022-08-19T09:13:42;97096.53;;;35.40;31.18
10464;BME280;5279;42.048;24.638;2022-08-19T09:16:16;97089.47;;;35.56;29.38
10464;BME280;5279;42.048;24.638;2022-08-19T09:18:46;97093.84;;;35.88;30.10
10464;BME280;5279;42.048;24.638;2022-08-19T09:21:14;97087.66;;;35.83;28.61
10464;BME280;5279;42.048;24.638;2022-08-19T09:23:43;97091.25;;;35.92;29.17
10464;BME280;5279;42.048;24.638;2022-08-19T09:26:12;97088.44;;;36.14;29.31
10464;BME280;5279;42.048;24.638;2022-08-19T09:28:40;97087.78;;;36.17;28.72
10464;BME280;5279;42.048;24.638;2022-08-19T09:31:09;97086.97;;;36.25;28.73
10464;BME280;5279;42.048;24.638;2022-08-19T09:33:36;97085.84;;;36.26;28.90
10464;BME280;5279;42.048;24.638;2022-08-19T09:36:05;97072.88;;;36.35;29.32
10464;BME280;5279;42.048;24.638;2022-08-19T09:38:33;97075.81;;;36.82;29.82
10464;BME280;5279;42.048;24.638;2022-08-19T09:41:05;97082.97;;;37.17;26.69
10464;BME280;5279;42.048;24.638;2022-08-19T09:43:33;97093.78;;;37.39;26.25
10464;BME280;5279;42.048;24.638;2022-08-19T09:46:02;97080.94;;;37.52;26.12
10464;BME280;5279;42.048;24.638;2022-08-19T09:48:31;97075.97;;;37.74;27.50
10464;BME280;5279;42.048;24.638;2022-08-19T09:51:03;97079.28;;;38.06;26.22
10464;BME280;5279;42.048;24.638;2022-08-19T09:53:30;97078.63;;;38.29;25.16
10464;BME280;5279;42.048;24.638;2022-08-19T09:55:57;97073.31;;;38.87;27.41
10464;BME280;5279;42.048;24.638;2022-08-19T09:58:26;97070.75;;;39.47;25.63
10464;BME280;5279;42.048;24.638;2022-08-19T10:00:54;97067.56;;;39.57;26.22
10464;BME280;5279;42.048;24.638;2022-08-19T10:03:24;97070.38;;;39.69;24.00
10464;BME280;5279;42.048;24.638;2022-08-19T10:05:52;97067.22;;;39.71;23.94
10464;BME280;5279;42.048;24.638;2022-08-19T10:08:21;97063.41;;;39.63;25.35
10464;BME280;5279;42.048;24.638;2022-08-19T10:10:49;97070.25;;;39.78;24.70
10464;BME280;5279;42.048;24.638;2022-08-19T10:13:24;97070.59;;;40.01;25.18
10464;BME280;5279;42.048;24.638;2022-08-19T10:15:55;97061.69;;;40.07;22.76
10464;BME280;5279;42.048;24.638;2022-08-19T10:18:24;97049.78;;;39.82;21.74
10464;BME280;5279;42.048;24.638;2022-08-19T10:20:51;97056.94;;;40.08;21.88
10464;BME280;5279;42.048;24.638;2022-08-19T10:23:20;97045.84;;;39.83;22.41
10464;BME280;5279;42.048;24.638;2022-08-19T10:25:47;97048.38;;;39.88;23.42
10464;BME280;5279;42.048;24.638;2022-08-19T10:28:14;97052.53;;;39.70;23.83
10464;BME280;5279;42.048;24.638;2022-08-19T10:30:42;97040.75;;;39.85;23.50
10464;BME280;5279;42.048;24.638;2022-08-19T10:33:10;97037.41;;;39.92;21.13
10464;BME280;5279;42.048;24.638;2022-08-19T10:35:37;97046.28;;;39.98;23.07
10464;BME280;5279;42.048;24.638;2022-08-19T10:38:04;97048.38;;;39.88;22.30
10464;BME280;5279;42.048;24.638;2022-08-19T10:40:31;97046.78;;;40.00;22.70
10464;BME280;5279;42.048;24.638;2022-08-19T10:42:58;97035.22;;;40.22;22.45
10464;BME280;5279;42.048;24.638;2022-08-19T10:45:25;97036.53;;;40.64;21.45
10464;BME280;5279;42.048;24.638;2022-08-19T10:47:53;97018.81;;;40.84;20.90
10464;BME280;5279;42.048;24.638;2022-08-19T10:50:23;97034.44;;;41.32;21.24
10464;BME280;5279;42.048;24.638;2022-08-19T10:53:08;97042.06;;;41.20;22.06
10464;BME280;5279;42.048;24.638;2022-08-19T10:55:35;97042.16;;;41.23;20.69
10464;BME280;5279;42.048;24.638;2022-08-19T10:58:20;97047.69;;;41.51;19.59
10464;BME280;5279;42.048;24.638;2022-08-19T11:00:52;97031.13;;;41.27;18.83
10464;BME280;5279;42.048;24.638;2022-08-19T11:03:20;97026.19;;;40.92;19.73
10464;BME280;5279;42.048;24.638;2022-08-19T11:05:57;97029.69;;;40.89;20.93
10464;BME280;5279;42.048;24.638;2022-08-19T11:08:23;97026.53;;;41.03;20.30
10464;BME280;5279;42.048;24.638;2022-08-19T11:10:53;97019.28;;;40.47;19.58
10464;BME280;5279;42.048;24.638;2022-08-19T11:13:26;97011.31;;;40.45;20.39
10464;BME280;5279;42.048;24.638;2022-08-19T11:15:57;97024.88;;;40.74;20.85
10464;BME280;5279;42.048;24.638;2022-08-19T11:18:24;97009.41;;;40.73;20.82
10464;BME280;5279;42.048;24.638;2022-08-19T11:20:53;97009.41;;;41.17;21.42
10464;BME280;5279;42.048;24.638;2022-08-19T11:23:20;97006.38;;;41.22;21.43
10464;BME280;5279;42.048;24.638;2022-08-19T11:25:47;97011.38;;;41.32;21.02
10464;BME280;5279;42.048;24.638;2022-08-19T11:28:13;97012.56;;;41.31;20.49
10464;BME280;5279;42.048;24.638;2022-08-19T11:30:40;97002.53;;;41.58;20.93
10464;BME280;5279;42.048;24.638;2022-08-19T11:33:07;96998.47;;;41.24;21.55
10464;BME280;5279;42.048;24.638;2022-08-19T11:35:39;97001.72;;;41.73;21.61
10464;BME280;5279;42.048;24.638;2022-08-19T11:38:07;97013.06;;;41.64;20.25
10464;BME280;5279;42.048;24.638;2022-08-19T11:40:35;97001.41;;;41.43;22.09
10464;BME280;5279;42.048;24.638;2022-08-19T11:43:03;97010.47;;;41.56;19.64
10464;BME280;5279;42.048;24.638;2022-08-19T11:45:30;97006.41;;;41.84;20.11
10464;BME280;5279;42.048;24.638;2022-08-19T11:47:57;97001.69;;;41.26;20.23
10464;BME280;5279;42.048;24.638;2022-08-19T11:50:24;96998.66;;;41.15;21.31
10464;BME280;5279;42.048;24.638;2022-08-19T11:52:53;96992.16;;;40.96;19.58
10464;BME280;5279;42.048;24.638;2022-08-19T11:55:22;96996.22;;;41.29;19.90
10464;BME280;5279;42.048;24.638;2022-08-19T11:57:49;96993.09;;;41.31;18.87
10464;BME280;5279;42.048;24.638;2022-08-19T12:00:16;96986.44;;;41.20;21.05
10464;BME280;5279;42.048;24.638;2022-08-19T12:02:44;96985.19;;;41.33;19.50
10464;BME280;5279;42.048;24.638;2022-08-19T12:05:11;96981.06;;;41.27;20.27
10464;BME280;5279;42.048;24.638;2022-08-19T12:07:38;96974.44;;;41.16;20.95
10464;BME280;5279;42.048;24.638;2022-08-19T12:10:08;96971.22;;;40.86;20.54
10464;BME280;5279;42.048;24.638;2022-08-19T12:12:36;96969.28;;;40.19;18.39
10464;BME280;5279;42.048;24.638;2022-08-19T12:15:09;96977.63;;;40.19;21.74
10464;BME280;5279;42.048;24.638;2022-08-19T12:17:36;96974.84;;;40.19;22.96
10464;BME280;5279;42.048;24.638;2022-08-19T12:20:04;96965.13;;;40.13;22.67
10464;BME280;5279;42.048;24.638;2022-08-19T12:22:31;96967.88;;;40.25;22.46
10464;BME280;5279;42.048;24.638;2022-08-19T12:24:58;96970.63;;;40.37;22.02
10464;BME280;5279;42.048;24.638;2022-08-19T12:27:26;96962.94;;;40.06;20.55
10464;BME280;5279;42.048;24.638;2022-08-19T12:29:54;96950.50;;;39.76;21.51
10464;BME280;5279;42.048;24.638;2022-08-19T12:32:21;96952.44;;;39.63;22.41
10464;BME280;5279;42.048;24.638;2022-08-19T12:34:48;96944.00;;;39.72;24.21
10464;BME280;5279;42.048;24.638;2022-08-19T12:37:14;96946.31;;;39.94;22.38
10464;BME280;5279;42.048;24.638;2022-08-19T12:39:42;96945.28;;;39.74;22.26
10464;BME280;5279;42.048;24.638;2022-08-19T12:42:11;96944.81;;;39.24;23.37
10464;BME280;5279;42.048;24.638;2022-08-19T12:44:40;96938.78;;;39.34;23.06
10464;BME280;5279;42.048;24.638;2022-08-19T12:47:10;96941.34;;;39.39;22.86
10464;BME280;5279;42.048;24.638;2022-08-19T12:49:39;96940.09;;;39.49;24.69
10464;BME280;5279;42.048;24.638;2022-08-19T12:52:07;96941.00;;;39.53;23.21
10464;BME280;5279;42.048;24.638;2022-08-19T12:54:35;96935.56;;;39.56;22.75
10464;BME280;5279;42.048;24.638;2022-08-19T12:57:05;96934.53;;;39.49;24.57
10464;BME280;5279;42.048;24.638;2022-08-19T12:59:33;96942.84;;;39.61;23.91
10464;BME280;5279;42.048;24.638;2022-08-19T13:02:00;96930.94;;;39.60;24.21
10464;BME280;5279;42.048;24.638;2022-08-19T13:04:28;96929.09;;;39.52;22.43
10464;BME280;5279;42.048;24.638;2022-08-19T13:06:55;96928.72;;;39.17;22.85
10464;BME280;5279;42.048;24.638;2022-08-19T13:09:22;96927.91;;;39.17;24.14